sensor_id;sensor_type;location;lat;lon;timestamp;temperature;humidity
42421;DHT22;28063;48.140;11.588;2023-03-23T00:00:59;10.90;72.50
42421;DHT22;28063;48.140;11.588;2023-03-23T00:03:24;10.90;72.80
42421;DHT22;28063;48.140;11.588;2023-03-23T00:05:51;10.90;73.00
42421;DHT22;28063;48.140;11.588;2023-03-23T00:08:20;10.80;73.10
42421;DHT22;28063;48.140;11.588;2023-03-23T00:10:52;10.80;73.40
42421;DHT22;28063;48.140;11.588;2023-03-23T00:13:18;10.80;73.60
42421;DHT22;28063;48.140;11.588;2023-03-23T00:15:46;10.80;73.90
42421;DHT22;28063;48.140;11.588;2023-03-23T00:18:15;10.70;74.10
42421;DHT22;28063;48.140;11.588;2023-03-23T00:20:52;10.70;74.20
42421;DHT22;28063;48.140;11.588;2023-03-23T00:23:19;10.70;74.40
42421;DHT22;28063;48.140;11.588;2023-03-23T00:25:51;10.70;74.60
42421;DHT22;28063;48.140;11.588;2023-03-23T00:28:19;10.70;74.80
42421;DHT22;28063;48.140;11.588;2023-03-23T00:30:57;10.70;75.50
42421;DHT22;28063;48.140;11.588;2023-03-23T00:33:24;10.70;75.00
42421;DHT22;28063;48.140;11.588;2023-03-23T00:35:52;10.80;75.20
42421;DHT22;28063;48.140;11.588;2023-03-23T00:38:19;10.70;75.20
42421;DHT22;28063;48.140;11.588;2023-03-23T00:40:45;10.70;75.40
42421;DHT22;28063;48.140;11.588;2023-03-23T00:43:16;10.70;75.60
42421;DHT22;28063;48.140;11.588;2023-03-23T00:45:43;10.70;75.80
42421;DHT22;28063;48.140;11.588;2023-03-23T00:48:23;10.70;76.00
42421;DHT22;28063;48.140;11.588;2023-03-23T00:50:50;10.70;76.00
42421;DHT22;28063;48.140;11.588;2023-03-23T00:53:16;10.70;76.10
42421;DHT22;28063;48.140;11.588;2023-03-23T00:55:44;10.70;76.00
42421;DHT22;28063;48.140;11.588;2023-03-23T00:58:10;10.70;76.20
42421;DHT22;28063;48.140;11.588;2023-03-23T01:00:37;10.70;76.20
42421;DHT22;28063;48.140;11.588;2023-03-23T01:03:03;10.70;76.30
42421;DHT22;28063;48.140;11.588;2023-03-23T01:05:33;10.70;76.30
42421;DHT22;28063;48.140;11.588;2023-03-23T01:07:59;10.70;76.30
42421;DHT22;28063;48.140;11.588;2023-03-23T01:10:25;10.70;76.50
42421;DHT22;28063;48.140;11.588;2023-03-23T01:12:56;10.70;76.60
42421;DHT22;28063;48.140;11.588;2023-03-23T01:15:22;10.70;76.60
42421;DHT22;28063;48.140;11.588;2023-03-23T01:17:47;10.70;76.60
42421;DHT22;28063;48.140;11.588;2023-03-23T01:20:14;10.70;76.60
42421;DHT22;28063;48.140;11.588;2023-03-23T01:22:41;10.70;76.70
42421;DHT22;28063;48.140;11.588;2023-03-23T01:25:09;10.70;76.70
42421;DHT22;28063;48.140;11.588;2023-03-23T01:27:34;10.70;76.80
42421;DHT22;28063;48.140;11.588;2023-03-23T01:30:00;10.70;76.80
42421;DHT22;28063;48.140;11.588;2023-03-23T01:32:26;10.60;76.90
42421;DHT22;28063;48.140;11.588;2023-03-23T01:34:52;10.60;77.00
42421;DHT22;28063;48.140;11.588;2023-03-23T01:37:18;10.60;77.20
42421;DHT22;28063;48.140;11.588;2023-03-23T01:39:45;10.60;77.20
42421;DHT22;28063;48.140;11.588;2023-03-23T01:42:11;10.60;77.30
42421;DHT22;28063;48.140;11.588;2023-03-23T01:47:05;10.60;77.40
42421;DHT22;28063;48.140;11.588;2023-03-23T01:49:35;10.60;77.60
42421;DHT22;28063;48.140;11.588;2023-03-23T01:52:06;10.60;77.70
42421;DHT22;28063;48.140;11.588;2023-03-23T01:54:35;10.70;77.80
42421;DHT22;28063;48.140;11.588;2023-03-23T01:57:09;10.60;77.80
42421;DHT22;28063;48.140;11.588;2023-03-23T01:59:36;10.60;77.80
42421;DHT22;28063;48.140;11.588;2023-03-23T02:02:02;10.60;77.90
42421;DHT22;28063;48.140;11.588;2023-03-23T02:04:30;10.60;78.00
42421;DHT22;28063;48.140;11.588;2023-03-23T02:06:57;10.60;78.00
42421;DHT22;28063;48.140;11.588;2023-03-23T02:09:25;10.60;78.10
42421;DHT22;28063;48.140;11.588;2023-03-23T02:11:52;10.60;78.20
42421;DHT22;28063;48.140;11.588;2023-03-23T02:14:19;10.60;78.30
42421;DHT22;28063;48.140;11.588;2023-03-23T02:17:05;10.60;78.40
42421;DHT22;28063;48.140;11.588;2023-03-23T02:22:31;10.50;78.60
42421;DHT22;28063;48.140;11.588;2023-03-23T02:25:39;10.50;78.70
42421;DHT22;28063;48.140;11.588;2023-03-23T02:34:05;10.50;79.10
42421;DHT22;28063;48.140;11.588;2023-03-23T02:36:40;10.50;79.20
42421;DHT22;28063;48.140;11.588;2023-03-23T02:40:05;10.50;79.20
42421;DHT22;28063;48.140;11.588;2023-03-23T02:42:36;10.50;79.30
42421;DHT22;28063;48.140;11.588;2023-03-23T02:45:07;10.50;79.20
42421;DHT22;28063;48.140;11.588;2023-03-23T02:47:36;10.50;79.20
42421;DHT22;28063;48.140;11.588;2023-03-23T02:50:03;10.50;79.20
42421;DHT22;28063;48.140;11.588;2023-03-23T02:52:32;10.50;79.30
42421;DHT22;28063;48.140;11.588;2023-03-23T02:55:00;10.50;79.30
42421;DHT22;28063;48.140;11.588;2023-03-23T02:57:27;10.50;79.30
42421;DHT22;28063;48.140;11.588;2023-03-23T02:59:54;10.50;79.20
42421;DHT22;28063;48.140;11.588;2023-03-23T03:02:29;10.50;79.30
42421;DHT22;28063;48.140;11.588;2023-03-23T03:21:19;10.30;80.00
42421;DHT22;28063;48.140;11.588;2023-03-23T03:23:52;10.20;80.10
42421;DHT22;28063;48.140;11.588;2023-03-23T03:26:20;10.20;80.20
42421;DHT22;28063;48.140;11.588;2023-03-23T03:28:48;10.20;80.20
42421;DHT22;28063;48.140;11.588;2023-03-23T03:31:17;10.20;80.30
42421;DHT22;28063;48.140;11.588;2023-03-23T03:33:44;10.20;80.40
42421;DHT22;28063;48.140;11.588;2023-03-23T03:36:16;10.20;80.50
42421;DHT22;28063;48.140;11.588;2023-03-23T03:38:47;10.20;80.50
42421;DHT22;28063;48.140;11.588;2023-03-23T03:41:14;10.20;80.60
42421;DHT22;28063;48.140;11.588;2023-03-23T03:43:40;10.20;80.60
42421;DHT22;28063;48.140;11.588;2023-03-23T03:46:05;10.20;80.60
42421;DHT22;28063;48.140;11.588;2023-03-23T03:48:31;10.30;80.50
42421;DHT22;28063;48.140;11.588;2023-03-23T03:50:57;10.20;80.50
42421;DHT22;28063;48.140;11.588;2023-03-23T03:53:32;10.20;80.60
42421;DHT22;28063;48.140;11.588;2023-03-23T03:55:57;10.20;80.60
42421;DHT22;28063;48.140;11.588;2023-03-23T03:58:28;10.20;80.70
42421;DHT22;28063;48.140;11.588;2023-03-23T04:01:00;10.20;80.80
42421;DHT22;28063;48.140;11.588;2023-03-23T04:03:26;10.20;80.80
42421;DHT22;28063;48.140;11.588;2023-03-23T04:05:54;10.20;80.70
42421;DHT22;28063;48.140;11.588;2023-03-23T04:08:22;10.30;80.80
42421;DHT22;28063;48.140;11.588;2023-03-23T04:10:48;10.30;80.70
42421;DHT22;28063;48.140;11.588;2023-03-23T04:13:14;10.30;80.60
42421;DHT22;28063;48.140;11.588;2023-03-23T04:15:40;10.30;81.20
42421;DHT22;28063;48.140;11.588;2023-03-23T04:18:06;10.30;80.60
42421;DHT22;28063;48.140;11.588;2023-03-23T04:20:32;10.30;80.60
42421;DHT22;28063;48.140;11.588;2023-03-23T04:23:00;10.20;80.70
42421;DHT22;28063;48.140;11.588;2023-03-23T04:25:27;10.30;80.90
42421;DHT22;28063;48.140;11.588;2023-03-23T04:27:53;10.20;80.90
42421;DHT22;28063;48.140;11.588;2023-03-23T04:30:24;10.20;80.90
42421;DHT22;28063;48.140;11.588;2023-03-23T04:32:52;10.30;81.00
42421;DHT22;28063;48.140;11.588;2023-03-23T04:35:23;10.30;80.90
42421;DHT22;28063;48.140;11.588;2023-03-23T04:37:50;10.30;80.90
42421;DHT22;28063;48.140;11.588;2023-03-23T04:40:17;10.30;80.90
42421;DHT22;28063;48.140;11.588;2023-03-23T04:42:43;10.30;81.00
42421;DHT22;28063;48.140;11.588;2023-03-23T04:45:14;10.20;80.90
42421;DHT22;28063;48.140;11.588;2023-03-23T04:47:41;10.20;81.00
42421;DHT22;28063;48.140;11.588;2023-03-23T04:50:12;10.20;81.00
42421;DHT22;28063;48.140;11.588;2023-03-23T04:52:39;10.20;81.00
42421;DHT22;28063;48.140;11.588;2023-03-23T04:55:08;10.20;81.10
42421;DHT22;28063;48.140;11.588;2023-03-23T04:57:35;10.20;81.20
42421;DHT22;28063;48.140;11.588;2023-03-23T05:00:02;10.20;81.30
42421;DHT22;28063;48.140;11.588;2023-03-23T05:02:36;10.20;81.40
42421;DHT22;28063;48.140;11.588;2023-03-23T05:05:02;10.30;81.40
42421;DHT22;28063;48.140;11.588;2023-03-23T05:07:27;10.30;81.30
42421;DHT22;28063;48.140;11.588;2023-03-23T05:09:53;10.20;81.80
42421;DHT22;28063;48.140;11.588;2023-03-23T05:12:18;10.30;81.30
42421;DHT22;28063;48.140;11.588;2023-03-23T05:14:44;10.20;81.30
42421;DHT22;28063;48.140;11.588;2023-03-23T05:17:10;10.20;81.40
42421;DHT22;28063;48.140;11.588;2023-03-23T05:19:35;10.20;81.50
42421;DHT22;28063;48.140;11.588;2023-03-23T05:22:01;10.20;81.60
42421;DHT22;28063;48.140;11.588;2023-03-23T05:24:29;10.20;81.70
42421;DHT22;28063;48.140;11.588;2023-03-23T05:26:57;10.20;81.80
42421;DHT22;28063;48.140;11.588;2023-03-23T05:29:22;10.30;81.60
42421;DHT22;28063;48.140;11.588;2023-03-23T05:31:49;10.30;81.60
42421;DHT22;28063;48.140;11.588;2023-03-23T05:34:15;10.30;81.60
42421;DHT22;28063;48.140;11.588;2023-03-23T05:36:41;10.30;81.60
42421;DHT22;28063;48.140;11.588;2023-03-23T05:39:10;10.40;81.60
42421;DHT22;28063;48.140;11.588;2023-03-23T05:41:36;10.40;81.60
42421;DHT22;28063;48.140;11.588;2023-03-23T05:44:03;10.40;81.60
42421;DHT22;28063;48.140;11.588;2023-03-23T05:46:29;10.40;81.60
42421;DHT22;28063;48.140;11.588;2023-03-23T05:48:54;10.40;81.60
42421;DHT22;28063;48.140;11.588;2023-03-23T05:51:20;10.40;81.70
42421;DHT22;28063;48.140;11.588;2023-03-23T05:53:46;10.40;81.60
42421;DHT22;28063;48.140;11.588;2023-03-23T05:56:12;10.40;81.60
42421;DHT22;28063;48.140;11.588;2023-03-23T05:58:38;10.40;81.60
42421;DHT22;28063;48.140;11.588;2023-03-23T06:01:07;10.50;81.60
42421;DHT22;28063;48.140;11.588;2023-03-23T06:03:33;10.50;81.70
42421;DHT22;28063;48.140;11.588;2023-03-23T06:06:02;10.50;81.70
42421;DHT22;28063;48.140;11.588;2023-03-23T06:08:28;10.60;81.80
42421;DHT22;28063;48.140;11.588;2023-03-23T06:10:54;10.60;81.60
42421;DHT22;28063;48.140;11.588;2023-03-23T06:13:21;10.70;81.50
42421;DHT22;28063;48.140;11.588;2023-03-23T06:15:47;10.80;81.30
42421;DHT22;28063;48.140;11.588;2023-03-23T06:18:13;10.90;80.90
42421;DHT22;28063;48.140;11.588;2023-03-23T06:20:39;10.90;80.60
42421;DHT22;28063;48.140;11.588;2023-03-23T06:23:06;11.00;80.40
42421;DHT22;28063;48.140;11.588;2023-03-23T06:25:34;11.10;80.20
42421;DHT22;28063;48.140;11.588;2023-03-23T06:28:00;11.20;80.00
42421;DHT22;28063;48.140;11.588;2023-03-23T06:30:26;11.20;79.70
42421;DHT22;28063;48.140;11.588;2023-03-23T06:32:53;11.20;79.50
42421;DHT22;28063;48.140;11.588;2023-03-23T06:35:19;11.30;79.30
42421;DHT22;28063;48.140;11.588;2023-03-23T06:37:45;11.30;79.00
42421;DHT22;28063;48.140;11.588;2023-03-23T06:40:11;11.30;79.00
42421;DHT22;28063;48.140;11.588;2023-03-23T06:42:37;11.40;78.90
42421;DHT22;28063;48.140;11.588;2023-03-23T06:45:04;11.40;78.60
42421;DHT22;28063;48.140;11.588;2023-03-23T06:47:30;11.40;78.50
42421;DHT22;28063;48.140;11.588;2023-03-23T06:49:57;11.50;78.50
42421;DHT22;28063;48.140;11.588;2023-03-23T06:52:23;11.50;78.30
42421;DHT22;28063;48.140;11.588;2023-03-23T06:54:50;11.60;78.30
42421;DHT22;28063;48.140;11.588;2023-03-23T06:57:16;11.70;78.10
42421;DHT22;28063;48.140;11.588;2023-03-23T06:59:42;11.70;77.90
42421;DHT22;28063;48.140;11.588;2023-03-23T07:02:12;11.80;77.70
42421;DHT22;28063;48.140;11.588;2023-03-23T07:04:39;11.90;77.40
42421;DHT22;28063;48.140;11.588;2023-03-23T07:07:09;12.00;77.20
42421;DHT22;28063;48.140;11.588;2023-03-23T07:09:36;12.20;76.90
42421;DHT22;28063;48.140;11.588;2023-03-23T07:12:02;12.40;76.30
42421;DHT22;28063;48.140;11.588;2023-03-23T07:14:28;12.60;75.50
42421;DHT22;28063;48.140;11.588;2023-03-23T07:16:54;12.80;74.80
42421;DHT22;28063;48.140;11.588;2023-03-23T07:19:20;13.00;74.20
42421;DHT22;28063;48.140;11.588;2023-03-23T07:21:46;13.30;73.40
42421;DHT22;28063;48.140;11.588;2023-03-23T07:24:13;13.40;72.40
42421;DHT22;28063;48.140;11.588;2023-03-23T07:26:40;13.60;71.80
42421;DHT22;28063;48.140;11.588;2023-03-23T07:29:07;13.90;71.20
42421;DHT22;28063;48.140;11.588;2023-03-23T07:31:33;14.10;70.50
42421;DHT22;28063;48.140;11.588;2023-03-23T07:33:59;14.30;70.00
42421;DHT22;28063;48.140;11.588;2023-03-23T07:36:25;14.50;69.10
42421;DHT22;28063;48.140;11.588;2023-03-23T07:38:51;14.70;68.10
42421;DHT22;28063;48.140;11.588;2023-03-23T07:41:17;15.00;67.70
42421;DHT22;28063;48.140;11.588;2023-03-23T07:43:43;15.20;66.70
42421;DHT22;28063;48.140;11.588;2023-03-23T07:46:09;15.50;65.90
42421;DHT22;28063;48.140;11.588;2023-03-23T07:48:34;15.80;65.20
42421;DHT22;28063;48.140;11.588;2023-03-23T07:51:01;16.00;63.90
42421;DHT22;28063;48.140;11.588;2023-03-23T07:53:27;16.20;63.40
42421;DHT22;28063;48.140;11.588;2023-03-23T07:55:53;16.40;63.10
42421;DHT22;28063;48.140;11.588;2023-03-23T07:58:19;16.50;62.30
42421;DHT22;28063;48.140;11.588;2023-03-23T08:00:48;16.70;61.50
42421;DHT22;28063;48.140;11.588;2023-03-23T08:03:15;16.70;61.10
42421;DHT22;28063;48.140;11.588;2023-03-23T08:05:41;16.60;61.00
42421;DHT22;28063;48.140;11.588;2023-03-23T08:08:08;16.50;61.20
42421;DHT22;28063;48.140;11.588;2023-03-23T08:10:35;16.30;61.30
42421;DHT22;28063;48.140;11.588;2023-03-23T08:13:01;16.10;61.80
42421;DHT22;28063;48.140;11.588;2023-03-23T08:15:27;15.90;62.30
42421;DHT22;28063;48.140;11.588;2023-03-23T08:17:54;15.80;62.50
42421;DHT22;28063;48.140;11.588;2023-03-23T08:20:20;15.70;62.70
42421;DHT22;28063;48.140;11.588;2023-03-23T08:22:54;15.80;63.00
42421;DHT22;28063;48.140;11.588;2023-03-23T08:25:21;15.90;63.00
42421;DHT22;28063;48.140;11.588;2023-03-23T08:27:47;16.00;62.80
42421;DHT22;28063;48.140;11.588;2023-03-23T08:30:16;16.00;62.60
42421;DHT22;28063;48.140;11.588;2023-03-23T08:32:42;16.00;62.50
42421;DHT22;28063;48.140;11.588;2023-03-23T08:35:10;16.00;62.50
42421;DHT22;28063;48.140;11.588;2023-03-23T08:37:43;16.00;62.50
42421;DHT22;28063;48.140;11.588;2023-03-23T08:40:14;16.00;62.40
42421;DHT22;28063;48.140;11.588;2023-03-23T08:42:42;16.00;62.20
42421;DHT22;28063;48.140;11.588;2023-03-23T08:45:10;16.10;61.90
42421;DHT22;28063;48.140;11.588;2023-03-23T08:47:37;16.30;61.80
42421;DHT22;28063;48.140;11.588;2023-03-23T08:50:05;16.40;61.30
42421;DHT22;28063;48.140;11.588;2023-03-23T08:52:31;16.50;60.90
42421;DHT22;28063;48.140;11.588;2023-03-23T08:54:58;16.70;60.60
42421;DHT22;28063;48.140;11.588;2023-03-23T08:57:25;16.90;61.20
42421;DHT22;28063;48.140;11.588;2023-03-23T08:59:54;16.90;60.30
42421;DHT22;28063;48.140;11.588;2023-03-23T09:02:22;17.20;60.50
42421;DHT22;28063;48.140;11.588;2023-03-23T09:04:49;17.30;59.80
42421;DHT22;28063;48.140;11.588;2023-03-23T09:07:15;17.50;59.30
42421;DHT22;28063;48.140;11.588;2023-03-23T09:09:41;17.60;58.60
42421;DHT22;28063;48.140;11.588;2023-03-23T09:12:08;17.80;57.80
42421;DHT22;28063;48.140;11.588;2023-03-23T09:14:37;18.00;56.90
42421;DHT22;28063;48.140;11.588;2023-03-23T09:17:04;18.20;55.80
42421;DHT22;28063;48.140;11.588;2023-03-23T09:19:32;18.20;55.80
42421;DHT22;28063;48.140;11.588;2023-03-23T09:21:59;18.20;54.80
42421;DHT22;28063;48.140;11.588;2023-03-23T09:24:25;18.30;54.30
42421;DHT22;28063;48.140;11.588;2023-03-23T09:26:51;18.30;54.30
42421;DHT22;28063;48.140;11.588;2023-03-23T09:29:19;18.40;54.10
42421;DHT22;28063;48.140;11.588;2023-03-23T09:31:46;18.60;53.90
42421;DHT22;28063;48.140;11.588;2023-03-23T09:34:13;18.80;53.60
42421;DHT22;28063;48.140;11.588;2023-03-23T09:36:43;18.80;53.10
42421;DHT22;28063;48.140;11.588;2023-03-23T09:39:10;18.90;52.60
42421;DHT22;28063;48.140;11.588;2023-03-23T09:41:53;18.80;52.30
42421;DHT22;28063;48.140;11.588;2023-03-23T09:52:13;19.30;51.70
42421;DHT22;28063;48.140;11.588;2023-03-23T09:54:43;19.30;51.70
42421;DHT22;28063;48.140;11.588;2023-03-23T09:57:22;19.40;51.70
42421;DHT22;28063;48.140;11.588;2023-03-23T10:02:39;20.20;50.60
42421;DHT22;28063;48.140;11.588;2023-03-23T10:05:29;20.50;49.60
42421;DHT22;28063;48.140;11.588;2023-03-23T10:07:55;20.70;49.10
42421;DHT22;28063;48.140;11.588;2023-03-23T10:10:25;20.80;49.00
42421;DHT22;28063;48.140;11.588;2023-03-23T10:12:58;20.80;48.40
42421;DHT22;28063;48.140;11.588;2023-03-23T10:15:30;20.80;48.50
42421;DHT22;28063;48.140;11.588;2023-03-23T10:18:01;20.90;48.50
42421;DHT22;28063;48.140;11.588;2023-03-23T10:26:08;20.50;48.40
42421;DHT22;28063;48.140;11.588;2023-03-23T10:28:44;20.10;48.50
42421;DHT22;28063;48.140;11.588;2023-03-23T10:31:23;19.70;49.80
42421;DHT22;28063;48.140;11.588;2023-03-23T10:33:52;19.40;50.50
42421;DHT22;28063;48.140;11.588;2023-03-23T10:36:24;19.30;50.80
42421;DHT22;28063;48.140;11.588;2023-03-23T10:39:14;19.10;51.10
42421;DHT22;28063;48.140;11.588;2023-03-23T10:41:43;19.00;51.20
42421;DHT22;28063;48.140;11.588;2023-03-23T10:44:16;18.90;51.40
42421;DHT22;28063;48.140;11.588;2023-03-23T10:47:03;18.90;51.70
42421;DHT22;28063;48.140;11.588;2023-03-23T10:52:30;19.00;51.80
42421;DHT22;28063;48.140;11.588;2023-03-23T10:55:04;19.20;51.30
42421;DHT22;28063;48.140;11.588;2023-03-23T10:57:32;19.30;50.60
42421;DHT22;28063;48.140;11.588;2023-03-23T11:00:06;19.30;50.00
42421;DHT22;28063;48.140;11.588;2023-03-23T11:02:44;19.30;49.80
42421;DHT22;28063;48.140;11.588;2023-03-23T11:05:23;19.30;49.60
42421;DHT22;28063;48.140;11.588;2023-03-23T11:07:54;19.40;49.70
42421;DHT22;28063;48.140;11.588;2023-03-23T11:10:47;19.40;49.70
42421;DHT22;28063;48.140;11.588;2023-03-23T11:13:15;19.50;49.10
42421;DHT22;28063;48.140;11.588;2023-03-23T11:15:43;19.60;49.10
42421;DHT22;28063;48.140;11.588;2023-03-23T11:20:57;19.70;48.30
42421;DHT22;28063;48.140;11.588;2023-03-23T11:26:28;19.60;48.50
42421;DHT22;28063;48.140;11.588;2023-03-23T11:31:23;19.60;48.30
42421;DHT22;28063;48.140;11.588;2023-03-23T11:33:59;19.70;48.50
42421;DHT22;28063;48.140;11.588;2023-03-23T11:36:35;20.00;48.50
42421;DHT22;28063;48.140;11.588;2023-03-23T11:39:02;20.20;48.20
42421;DHT22;28063;48.140;11.588;2023-03-23T11:41:33;20.40;47.90
42421;DHT22;28063;48.140;11.588;2023-03-23T11:44:07;20.50;47.50
42421;DHT22;28063;48.140;11.588;2023-03-23T11:46:46;20.70;47.20
42421;DHT22;28063;48.140;11.588;2023-03-23T11:49:22;20.70;47.10
42421;DHT22;28063;48.140;11.588;2023-03-23T11:51:56;20.90;47.00
42421;DHT22;28063;48.140;11.588;2023-03-23T11:54:36;20.90;46.70
42421;DHT22;28063;48.140;11.588;2023-03-23T11:57:10;20.90;46.40
42421;DHT22;28063;48.140;11.588;2023-03-23T11:59:40;20.70;46.70
42421;DHT22;28063;48.140;11.588;2023-03-23T12:08:34;20.80;47.20
42421;DHT22;28063;48.140;11.588;2023-03-23T12:16:48;20.60;46.70
42421;DHT22;28063;48.140;11.588;2023-03-23T12:19:29;20.60;47.00
42421;DHT22;28063;48.140;11.588;2023-03-23T12:25:05;20.60;46.80
42421;DHT22;28063;48.140;11.588;2023-03-23T12:27:52;20.70;46.90
42421;DHT22;28063;48.140;11.588;2023-03-23T12:35:52;20.80;46.70
42421;DHT22;28063;48.140;11.588;2023-03-23T12:41:16;20.90;46.80
42421;DHT22;28063;48.140;11.588;2023-03-23T12:43:50;20.80;46.50
42421;DHT22;28063;48.140;11.588;2023-03-23T12:49:45;20.70;46.30
42421;DHT22;28063;48.140;11.588;2023-03-23T12:52:18;20.70;46.50
42421;DHT22;28063;48.140;11.588;2023-03-23T12:55:04;20.80;46.10
42421;DHT22;28063;48.140;11.588;2023-03-23T12:57:45;20.90;45.80
42421;DHT22;28063;48.140;11.588;2023-03-23T13:00:24;20.80;45.80
42421;DHT22;28063;48.140;11.588;2023-03-23T13:03:09;20.80;45.50
42421;DHT22;28063;48.140;11.588;2023-03-23T13:05:42;20.80;45.30
42421;DHT22;28063;48.140;11.588;2023-03-23T13:08:18;20.70;44.80
42421;DHT22;28063;48.140;11.588;2023-03-23T13:10:51;20.60;44.90
42421;DHT22;28063;48.140;11.588;2023-03-23T13:13:39;20.50;44.70
42421;DHT22;28063;48.140;11.588;2023-03-23T13:24:46;19.90;46.30
42421;DHT22;28063;48.140;11.588;2023-03-23T13:27:16;19.80;45.60
42421;DHT22;28063;48.140;11.588;2023-03-23T13:29:46;19.70;46.10
42421;DHT22;28063;48.140;11.588;2023-03-23T13:32:19;19.60;46.10
42421;DHT22;28063;48.140;11.588;2023-03-23T13:34:47;19.70;46.00
42421;DHT22;28063;48.140;11.588;2023-03-23T13:37:23;19.70;46.10
42421;DHT22;28063;48.140;11.588;2023-03-23T13:39:58;19.80;46.00
42421;DHT22;28063;48.140;11.588;2023-03-23T13:42:29;20.00;46.10
42421;DHT22;28063;48.140;11.588;2023-03-23T13:45:23;20.10;46.00
42421;DHT22;28063;48.140;11.588;2023-03-23T13:47:49;20.20;45.90
42421;DHT22;28063;48.140;11.588;2023-03-23T13:50:30;20.40;45.60
42421;DHT22;28063;48.140;11.588;2023-03-23T13:53:01;20.40;46.50
42421;DHT22;28063;48.140;11.588;2023-03-23T13:57:56;19.90;48.00
42421;DHT22;28063;48.140;11.588;2023-03-23T14:05:33;19.60;49.30
42421;DHT22;28063;48.140;11.588;2023-03-23T14:08:12;19.70;49.60
42421;DHT22;28063;48.140;11.588;2023-03-23T14:13:24;19.70;49.90
42421;DHT22;28063;48.140;11.588;2023-03-23T14:16:23;19.50;49.90
42421;DHT22;28063;48.140;11.588;2023-03-23T14:19:01;19.40;50.90
42421;DHT22;28063;48.140;11.588;2023-03-23T14:21:35;19.20;51.00
42421;DHT22;28063;48.140;11.588;2023-03-23T14:24:15;18.90;51.80
42421;DHT22;28063;48.140;11.588;2023-03-23T14:26:41;18.80;51.50
42421;DHT22;28063;48.140;11.588;2023-03-23T14:29:10;18.70;51.70
42421;DHT22;28063;48.140;11.588;2023-03-23T14:31:37;18.70;51.80
42421;DHT22;28063;48.140;11.588;2023-03-23T14:34:17;18.60;51.70
42421;DHT22;28063;48.140;11.588;2023-03-23T14:36:47;18.70;51.50
42421;DHT22;28063;48.140;11.588;2023-03-23T14:39:30;18.70;51.30
42421;DHT22;28063;48.140;11.588;2023-03-23T14:42:02;18.70;51.60
42421;DHT22;28063;48.140;11.588;2023-03-23T14:44:31;18.70;51.50
42421;DHT22;28063;48.140;11.588;2023-03-23T14:47:22;18.70;51.40
42421;DHT22;28063;48.140;11.588;2023-03-23T14:49:46;18.60;51.60
42421;DHT22;28063;48.140;11.588;2023-03-23T14:52:14;18.60;51.80
42421;DHT22;28063;48.140;11.588;2023-03-23T14:54:42;18.50;51.90
42421;DHT22;28063;48.140;11.588;2023-03-23T14:57:17;18.50;52.10
42421;DHT22;28063;48.140;11.588;2023-03-23T14:59:46;18.50;52.30
42421;DHT22;28063;48.140;11.588;2023-03-23T15:02:32;18.50;52.30
42421;DHT22;28063;48.140;11.588;2023-03-23T15:07:37;18.50;53.30
42421;DHT22;28063;48.140;11.588;2023-03-23T15:10:08;18.40;52.90
42421;DHT22;28063;48.140;11.588;2023-03-23T15:12:36;18.20;53.20
42421;DHT22;28063;48.140;11.588;2023-03-23T15:15:05;18.10;53.60
42421;DHT22;28063;48.140;11.588;2023-03-23T15:17:35;18.10;53.90
42421;DHT22;28063;48.140;11.588;2023-03-23T15:20:17;18.00;54.00
42421;DHT22;28063;48.140;11.588;2023-03-23T15:22:47;17.90;54.20
42421;DHT22;28063;48.140;11.588;2023-03-23T15:27:55;17.90;54.80
42421;DHT22;28063;48.140;11.588;2023-03-23T15:32:55;17.90;54.90
42421;DHT22;28063;48.140;11.588;2023-03-23T15:35:25;17.90;55.00
42421;DHT22;28063;48.140;11.588;2023-03-23T15:38:03;17.90;55.50
42421;DHT22;28063;48.140;11.588;2023-03-23T15:40:34;17.80;55.20
42421;DHT22;28063;48.140;11.588;2023-03-23T15:43:24;17.80;55.30
42421;DHT22;28063;48.140;11.588;2023-03-23T15:46:05;17.80;55.60
42421;DHT22;28063;48.140;11.588;2023-03-23T15:51:22;17.70;55.90
42421;DHT22;28063;48.140;11.588;2023-03-23T15:53:50;17.60;56.10
42421;DHT22;28063;48.140;11.588;2023-03-23T15:56:17;17.60;56.50
42421;DHT22;28063;48.140;11.588;2023-03-23T15:58:43;17.50;56.80
42421;DHT22;28063;48.140;11.588;2023-03-23T16:03:54;17.40;57.30
42421;DHT22;28063;48.140;11.588;2023-03-23T16:06:24;17.30;57.50
42421;DHT22;28063;48.140;11.588;2023-03-23T16:08:53;17.30;57.80
42421;DHT22;28063;48.140;11.588;2023-03-23T16:11:20;17.20;57.90
42421;DHT22;28063;48.140;11.588;2023-03-23T16:13:46;17.20;58.00
42421;DHT22;28063;48.140;11.588;2023-03-23T16:16:20;17.10;58.00
42421;DHT22;28063;48.140;11.588;2023-03-23T16:18:46;17.00;58.00
42421;DHT22;28063;48.140;11.588;2023-03-23T16:21:12;16.90;58.30
42421;DHT22;28063;48.140;11.588;2023-03-23T16:23:38;16.80;58.50
42421;DHT22;28063;48.140;11.588;2023-03-23T16:26:05;16.80;58.70
42421;DHT22;28063;48.140;11.588;2023-03-23T16:28:31;16.70;58.80
42421;DHT22;28063;48.140;11.588;2023-03-23T16:30:56;16.70;59.30
42421;DHT22;28063;48.140;11.588;2023-03-23T16:33:22;16.60;59.70
42421;DHT22;28063;48.140;11.588;2023-03-23T16:35:48;16.60;60.10
42421;DHT22;28063;48.140;11.588;2023-03-23T16:38:15;16.50;60.40
42421;DHT22;28063;48.140;11.588;2023-03-23T16:40:42;16.50;61.10
42421;DHT22;28063;48.140;11.588;2023-03-23T16:43:09;16.40;61.80
42421;DHT22;28063;48.140;11.588;2023-03-23T16:45:40;16.40;62.40
42421;DHT22;28063;48.140;11.588;2023-03-23T16:48:06;16.30;63.00
42421;DHT22;28063;48.140;11.588;2023-03-23T16:50:32;16.20;63.60
42421;DHT22;28063;48.140;11.588;2023-03-23T16:52:58;16.20;64.10
42421;DHT22;28063;48.140;11.588;2023-03-23T16:55:25;16.10;64.40
42421;DHT22;28063;48.140;11.588;2023-03-23T16:57:53;16.00;64.70
42421;DHT22;28063;48.140;11.588;2023-03-23T17:00:19;16.00;65.00
42421;DHT22;28063;48.140;11.588;2023-03-23T17:02:47;16.00;65.10
42421;DHT22;28063;48.140;11.588;2023-03-23T17:05:13;15.90;65.30
42421;DHT22;28063;48.140;11.588;2023-03-23T17:07:41;15.90;65.60
42421;DHT22;28063;48.140;11.588;2023-03-23T17:10:08;15.80;65.90
42421;DHT22;28063;48.140;11.588;2023-03-23T17:12:34;15.80;66.00
42421;DHT22;28063;48.140;11.588;2023-03-23T17:15:00;15.70;66.30
42421;DHT22;28063;48.140;11.588;2023-03-23T17:17:26;15.70;66.60
42421;DHT22;28063;48.140;11.588;2023-03-23T17:19:52;15.70;66.80
42421;DHT22;28063;48.140;11.588;2023-03-23T17:22:18;15.70;66.90
42421;DHT22;28063;48.140;11.588;2023-03-23T17:24:44;15.60;67.20